createdAt,value
2023-01-28T00:02:49.681Z,83991.00
2023-01-28T00:05:54.257Z,83992.59
2023-01-28T00:08:56.663Z,83994.16
2023-01-28T00:11:59.309Z,83998.88
2023-01-28T00:15:04.066Z,83987.84
2023-01-28T00:18:06.778Z,83994.16
2023-01-28T00:21:12.780Z,83992.63
2023-01-28T00:24:15.597Z,83986.28
2023-01-28T00:27:18.008Z,84000.47
2023-01-28T00:30:20.826Z,83995.75
2023-01-28T00:33:23.789Z,83997.31
2023-01-28T00:36:27.556Z,84002.06
2023-01-28T00:39:30.087Z,83995.75
2023-01-28T00:42:32.828Z,84006.78
2023-01-28T00:45:35.144Z,84000.47
2023-01-28T00:48:40.380Z,83994.94
2023-01-28T00:51:42.755Z,84006.81
2023-01-28T00:54:45.438Z,84002.87
2023-01-28T00:57:48.841Z,84001.28
2023-01-28T01:00:52.160Z,84003.63
2023-01-28T01:04:02.903Z,84007.59
2023-01-28T01:07:06.117Z,84012.34
2023-01-28T01:10:16.939Z,84003.66
2023-01-28T01:13:19.875Z,84010.72
2023-01-28T01:16:24.871Z,84011.50
2023-01-28T01:19:28.367Z,84011.50
2023-01-28T01:22:33.835Z,84016.28
2023-01-28T01:25:40.021Z,84010.72
2023-01-28T01:28:43.324Z,84024.97
2023-01-28T01:31:46.017Z,84018.59
2023-01-28T01:34:48.824Z,84019.41
2023-01-28T01:37:51.507Z,84022.53
2023-01-28T01:40:58.490Z,84019.38
2023-01-28T01:44:05.117Z,84021.00
2023-01-28T01:47:09.595Z,84014.66
2023-01-28T01:50:20.581Z,84009.94
2023-01-28T01:53:24.980Z,84013.13
2023-01-28T01:56:33.033Z,84017.03
2023-01-28T01:59:36.464Z,84014.66
2023-01-28T02:02:43.330Z,84020.97
2023-01-28T02:05:46.048Z,84009.94
2023-01-28T02:08:48.428Z,84013.09
2023-01-28T02:11:53.883Z,84018.66
2023-01-28T02:15:21.088Z,84013.09
2023-01-28T02:18:24.015Z,84023.34
2023-01-28T02:21:54.513Z,84024.16
2023-01-28T02:25:20.818Z,84021.00
2023-01-28T02:28:39.875Z,84015.47
2023-01-28T02:31:59.280Z,84027.34
2023-01-28T02:35:33.664Z,84011.56
2023-01-28T02:38:46.817Z,84013.88
2023-01-28T02:41:56.345Z,84013.09
2023-01-28T02:44:59.171Z,84016.25
2023-01-28T02:48:01.767Z,84022.59
2023-01-28T02:51:33.188Z,84022.56
2023-01-28T02:54:44.674Z,84021.00
2023-01-28T02:58:08.953Z,84025.72
2023-01-28T03:01:24.783Z,84016.25
2023-01-28T03:04:33.315Z,84011.50
2023-01-28T03:07:38.806Z,84018.66
2023-01-28T03:10:41.551Z,84017.03
2023-01-28T03:14:05.043Z,84014.69
2023-01-28T03:17:34.203Z,84017.03
2023-01-28T03:21:20.295Z,84011.50
2023-01-28T03:24:47.867Z,84024.16
2023-01-28T03:28:15.381Z,84019.44
2023-01-28T03:31:40.615Z,84020.97
2023-01-28T03:35:03.242Z,84013.09
2023-01-28T03:38:18.200Z,84013.13
2023-01-28T03:41:23.969Z,84009.16
2023-01-28T03:44:46.716Z,84013.09
2023-01-28T03:47:49.576Z,84010.75
2023-01-28T03:50:53.598Z,84009.94
2023-01-28T03:53:56.021Z,84008.41
2023-01-28T03:56:58.649Z,84011.56
2023-01-28T04:00:01.060Z,84019.41
2023-01-28T04:03:04.979Z,84016.25
2023-01-28T04:06:09.842Z,84025.72
2023-01-28T04:09:14.511Z,84019.41
2023-01-28T04:12:25.031Z,84009.19
2023-01-28T04:15:27.669Z,84009.94
2023-01-28T04:18:30.470Z,84008.41
2023-01-28T04:21:33.095Z,84013.88
2023-01-28T04:24:35.852Z,84014.69
2023-01-28T04:27:38.331Z,84020.97
2023-01-28T04:30:42.224Z,84022.56
2023-01-28T04:33:45.040Z,84020.22
2023-01-28T04:36:47.845Z,84020.97
2023-01-28T04:39:53.427Z,84019.44
2023-01-28T04:42:57.267Z,84025.75
2023-01-28T04:45:59.967Z,84029.69
2023-01-28T04:49:03.657Z,84028.88
2023-01-28T04:52:06.353Z,84027.28
2023-01-28T04:55:10.559Z,84028.06
2023-01-28T04:58:12.925Z,84033.59
2023-01-28T05:01:19.609Z,84038.34
2023-01-28T05:04:22.880Z,84043.06
2023-01-28T05:07:25.516Z,84043.09
2023-01-28T05:10:28.542Z,84041.47
2023-01-28T05:13:31.157Z,84043.09
2023-01-28T05:16:35.007Z,84049.41
2023-01-28T05:19:38.058Z,84043.06
2023-01-28T05:22:41.324Z,84049.41
2023-01-28T05:25:45.353Z,84047.03
2023-01-28T05:28:47.886Z,84047.81
2023-01-28T05:31:50.619Z,84049.41
2023-01-28T05:34:53.254Z,84055.69
2023-01-28T05:37:55.936Z,84051.00
2023-01-28T05:40:58.435Z,84051.75
2023-01-28T05:44:01.338Z,84046.22
2023-01-28T05:47:04.125Z,84044.66
2023-01-28T05:50:08.273Z,84043.06
2023-01-28T05:53:11.055Z,84044.66
2023-01-28T05:56:13.909Z,84046.25
2023-01-28T05:59:16.531Z,84047.81
2023-01-28T06:02:19.315Z,84052.56
2023-01-28T06:05:22.260Z,84055.72
2023-01-28T06:08:24.664Z,84057.28
2023-01-28T06:11:27.549Z,84065.16
2023-01-28T06:14:30.312Z,84065.97
2023-01-28T06:17:38.675Z,84066.78
2023-01-28T06:20:41.461Z,84074.66
2023-01-28T06:23:44.240Z,84073.06
2023-01-28T06:26:46.589Z,84080.97
2023-01-28T06:29:49.494Z,84089.66
2023-01-28T06:32:56.021Z,84077.78
2023-01-28T06:35:58.731Z,84079.34
2023-01-28T06:39:01.040Z,84092.00
2023-01-28T06:42:03.911Z,84093.56
2023-01-28T06:45:06.813Z,84096.72
2023-01-28T06:48:09.451Z,84103.84
2023-01-28T06:51:11.890Z,84108.56
2023-01-28T06:54:14.595Z,84103.03
2023-01-28T06:57:16.986Z,84109.34
2023-01-28T07:00:20.149Z,84124.34
2023-01-28T07:03:22.626Z,84122.75
2023-01-28T07:06:25.280Z,84121.22
2023-01-28T07:09:27.635Z,84115.66
2023-01-28T07:12:30.238Z,84121.19
2023-01-28T07:15:32.660Z,84120.38
2023-01-28T07:18:35.322Z,84121.97
2023-01-28T07:21:37.762Z,84126.72
2023-01-28T07:24:40.465Z,84130.63
2023-01-28T07:27:48.194Z,84141.69
2023-01-28T07:30:53.472Z,84140.88
2023-01-28T07:33:56.620Z,84146.47
2023-01-28T07:36:59.597Z,84136.16
2023-01-28T07:40:02.332Z,84126.75
2023-01-28T07:43:07.242Z,84123.56
2023-01-28T07:46:11.312Z,84123.59
2023-01-28T07:49:15.028Z,84127.50
2023-01-28T07:52:17.418Z,84121.97
2023-01-28T07:55:20.172Z,84126.72
2023-01-28T07:58:22.497Z,84121.97
2023-01-28T08:01:25.257Z,84128.28
2023-01-28T08:04:28.350Z,84124.37
2023-01-28T08:07:31.951Z,84125.94
2023-01-28T08:10:35.058Z,84129.09
2023-01-28T08:13:37.661Z,84124.34
2023-01-28T08:16:40.493Z,84125.16
2023-01-28T08:19:42.816Z,84114.12
2023-01-28T08:22:45.569Z,84121.22
2023-01-28T08:25:48.460Z,84122.00
2023-01-28T08:28:51.702Z,84117.25
2023-01-28T08:31:54.157Z,84126.72
2023-01-28T08:34:57.081Z,84114.12
2023-01-28T08:38:01.551Z,84129.91
2023-01-28T08:41:04.627Z,84122.00
2023-01-28T08:44:06.934Z,84120.44
2023-01-28T08:47:10.163Z,84128.31
2023-01-28T08:50:13.124Z,84128.31
2023-01-28T08:53:18.742Z,84119.63
2023-01-28T08:56:21.099Z,84123.56
2023-01-28T08:59:23.723Z,84112.53
2023-01-28T09:02:31.942Z,84115.69
2023-01-28T09:05:35.929Z,84098.34
2023-01-28T09:08:38.391Z,84103.09
2023-01-28T09:11:41.069Z,84107.81
2023-01-28T09:14:43.518Z,84101.50
2023-01-28T09:17:46.106Z,84104.66
2023-01-28T09:20:48.481Z,84112.59
2023-01-28T09:23:51.115Z,84111.75
2023-01-28T09:26:53.438Z,84118.06
2023-01-28T09:29:56.033Z,84106.25
2023-01-28T09:32:58.842Z,84103.09
2023-01-28T09:36:03.173Z,84106.25
2023-01-28T09:39:08.526Z,84099.91
2023-01-28T09:42:26.500Z,84098.34
2023-01-28T09:45:36.520Z,84092.06
2023-01-28T09:48:47.563Z,84081.00
2023-01-28T09:51:53.682Z,84085.72
2023-01-28T09:55:18.611Z,84074.69
2023-01-28T09:58:23.627Z,84084.16
2023-01-28T10:01:26.201Z,84079.41
2023-01-28T10:04:39.776Z,84063.66
2023-01-28T10:08:23.109Z,84062.06
2023-01-28T10:12:03.139Z,84051.03
2023-01-28T10:15:11.399Z,84036.84
2023-01-28T10:18:18.229Z,84034.44
2023-01-28T10:21:31.083Z,84027.38
2023-01-28T10:24:33.756Z,84008.41
2023-01-28T10:27:37.390Z,83995.78
2023-01-28T10:30:42.978Z,83983.16
2023-01-28T10:33:45.358Z,83973.69
2023-01-28T10:36:49.312Z,83983.16
2023-01-28T10:39:57.381Z,83978.44
2023-01-28T10:42:59.985Z,83978.41
2023-01-28T10:46:10.013Z,83967.34
2023-01-28T10:49:18.854Z,83964.22
2023-01-28T10:52:21.268Z,83976.88
2023-01-28T10:55:30.826Z,83951.56
2023-01-28T10:58:36.449Z,83958.66
2023-01-28T11:01:45.592Z,83954.72
2023-01-28T11:04:48.382Z,83923.12
2023-01-28T11:07:51.415Z,83905.81
2023-01-28T11:10:55.338Z,83912.84
2023-01-28T11:13:58.774Z,83902.59
2023-01-28T11:17:01.348Z,83912.88
2023-01-28T11:20:14.107Z,83913.66
2023-01-28T11:23:26.902Z,83904.97
2023-01-28T11:26:36.609Z,83897.88
2023-01-28T11:29:42.126Z,83914.50
2023-01-28T11:32:45.041Z,83910.56
2023-01-28T11:36:06.155Z,83905.75
2023-01-28T11:39:28.636Z,83904.97
2023-01-28T11:42:31.581Z,83902.63
2023-01-28T11:46:18.634Z,83897.09
2023-01-28T11:49:36.313Z,83913.66
2023-01-28T11:53:06.774Z,83905.75
2023-01-28T11:56:33.488Z,83897.91
2023-01-28T11:59:46.633Z,83896.28
2023-01-28T12:03:10.505Z,83883.66
2023-01-28T12:06:27.203Z,83871.03
2023-01-28T12:10:01.777Z,83881.28
2023-01-28T12:13:19.597Z,83869.44
2023-01-28T12:16:30.967Z,83874.16
2023-01-28T12:19:41.068Z,83862.34
2023-01-28T12:23:03.564Z,83856.00
2023-01-28T12:26:12.871Z,83844.19
2023-01-28T12:29:36.715Z,83832.28
2023-01-28T12:33:21.050Z,83842.56
2023-01-28T12:36:36.576Z,83848.91
2023-01-28T12:39:45.302Z,83859.97
2023-01-28T12:42:57.740Z,83853.62
2023-01-28T12:46:09.627Z,83847.31
2023-01-28T12:49:23.030Z,83847.34
2023-01-28T12:52:34.002Z,83843.37
2023-01-28T12:55:50.210Z,83850.47
2023-01-28T12:59:20.728Z,83845.72
2023-01-28T13:02:33.027Z,83838.62
2023-01-28T13:05:41.883Z,83828.38
2023-01-28T13:08:44.240Z,83837.88
2023-01-28T13:11:49.842Z,83864.69
2023-01-28T13:14:54.258Z,83889.97
2023-01-28T13:18:05.536Z,83899.47
2023-01-28T13:21:12.723Z,83901.00
2023-01-28T13:24:22.672Z,83896.28
2023-01-28T13:27:28.669Z,83904.22
2023-01-28T13:30:47.197Z,83893.16
2023-01-28T13:34:01.384Z,83897.06
2023-01-28T13:37:05.798Z,83910.53
2023-01-28T13:40:14.052Z,83913.69
2023-01-28T13:43:34.799Z,83915.22
2023-01-28T13:46:39.372Z,83935.75
2023-01-28T13:49:49.104Z,83930.25
2023-01-28T13:52:58.161Z,83931.03
2023-01-28T13:56:07.567Z,83910.50
2023-01-28T13:59:21.753Z,83912.06
2023-01-28T14:02:59.362Z,83908.16
2023-01-28T14:06:20.834Z,83912.09
2023-01-28T14:09:57.012Z,83917.63
2023-01-28T14:13:09.016Z,83912.06
2023-01-28T14:16:38.562Z,83912.84
2023-01-28T14:19:44.665Z,83916.03
2023-01-28T14:22:48.572Z,83927.06
2023-01-28T14:26:09.895Z,83929.44
2023-01-28T14:29:21.426Z,83926.28
2023-01-28T14:32:30.750Z,83935.78
2023-01-28T14:35:37.476Z,83934.16
2023-01-28T14:38:43.895Z,83929.44
2023-01-28T14:41:49.659Z,83946.81
2023-01-28T14:45:16.491Z,83951.53
2023-01-28T14:48:37.016Z,83953.91
2023-01-28T14:52:02.364Z,83957.87
2023-01-28T14:55:19.730Z,83976.00
2023-01-28T14:58:35.864Z,83979.97
2023-01-28T15:01:45.145Z,83972.13
2023-01-28T15:04:48.472Z,83978.38
2023-01-28T15:07:51.159Z,83986.28
2023-01-28T15:10:54.143Z,84000.50
2023-01-28T15:13:59.087Z,83998.97
2023-01-28T15:17:03.207Z,84008.38
2023-01-28T15:20:07.605Z,84010.78
2023-01-28T15:23:10.342Z,84009.97
2023-01-28T15:26:17.426Z,84017.84
2023-01-28T15:29:40.045Z,84032.84
2023-01-28T15:32:43.305Z,84033.63
2023-01-28T15:35:51.417Z,84032.84
2023-01-28T15:38:55.177Z,84046.28
2023-01-28T15:42:07.177Z,84051.00
2023-01-28T15:45:18.888Z,84045.47
2023-01-28T15:48:25.229Z,84055.75
2023-01-28T15:51:34.037Z,84068.38
2023-01-28T15:54:43.087Z,84068.38
2023-01-28T15:57:45.511Z,84071.53
2023-01-28T16:00:49.012Z,84079.44
2023-01-28T16:04:06.826Z,84081.78
2023-01-28T16:07:11.270Z,84092.06
2023-01-28T16:10:25.187Z,84093.66
2023-01-28T16:13:31.965Z,84093.63
2023-01-28T16:16:37.440Z,84114.94
2023-01-28T16:19:45.945Z,84118.88
2023-01-28T16:22:49.052Z,84122.06
2023-01-28T16:26:02.808Z,84132.28
2023-01-28T16:29:17.029Z,84133.84
2023-01-28T16:32:39.198Z,84140.19
2023-01-28T16:36:03.453Z,84141.00
2023-01-28T16:39:04.507Z,84137.81
2023-01-28T16:42:09.433Z,84139.37
2023-01-28T16:45:23.778Z,84134.66
2023-01-28T16:48:26.551Z,84140.97
2023-01-28T16:51:29.072Z,84134.69
2023-01-28T16:54:33.835Z,84139.41
2023-01-28T16:57:36.806Z,84148.84
2023-01-28T17:00:39.742Z,84156.75
2023-01-28T17:03:42.352Z,84156.78
2023-01-28T17:06:45.300Z,84144.12
2023-01-28T17:09:47.690Z,84144.12
2023-01-28T17:12:50.605Z,84152.00
2023-01-28T17:15:53.295Z,84165.44
2023-01-28T17:18:56.085Z,84181.22
2023-01-28T17:21:59.580Z,84193.09
2023-01-28T17:25:02.259Z,84202.50
2023-01-28T17:28:05.590Z,84208.03
2023-01-28T17:31:14.031Z,84210.41
2023-01-28T17:34:16.493Z,84213.56
2023-01-28T17:37:19.255Z,84223.00
2023-01-28T17:40:22.798Z,84224.63
2023-01-28T17:43:25.471Z,84216.75
2023-01-28T17:46:27.857Z,84219.06
2023-01-28T17:49:30.558Z,84227.78
2023-01-28T17:52:33.399Z,84234.06
2023-01-28T17:55:37.234Z,84238.78
2023-01-28T17:58:39.678Z,84232.47
2023-01-28T18:01:43.921Z,84236.44
2023-01-28T18:04:46.707Z,84238.78
2023-01-28T18:07:50.480Z,84230.91
2023-01-28T18:10:55.159Z,84243.53
2023-01-28T18:13:57.843Z,84246.69
2023-01-28T18:17:00.969Z,84249.88
2023-01-28T18:20:06.696Z,84253.00
2023-01-28T18:23:09.555Z,84256.16
2023-01-28T18:26:11.908Z,84260.09
2023-01-28T18:29:17.063Z,84260.09
2023-01-28T18:32:19.618Z,84271.94
2023-01-28T18:35:22.400Z,84266.41
2023-01-28T18:38:24.838Z,84268.81
2023-01-28T18:41:27.430Z,84273.50
2023-01-28T18:44:30.723Z,84278.25
2023-01-28T18:47:33.386Z,84279.84
2023-01-28T18:50:35.792Z,84276.66
2023-01-28T18:53:38.416Z,84280.56
2023-01-28T18:56:41.365Z,84286.91
2023-01-28T18:59:44.176Z,84289.28
2023-01-28T19:02:46.604Z,84284.59
2023-01-28T19:05:49.508Z,84288.47
2023-01-28T19:08:56.542Z,84296.41
2023-01-28T19:11:59.363Z,84298.75
2023-01-28T19:15:01.875Z,84305.06
2023-01-28T19:18:04.573Z,84303.47
2023-01-28T19:21:07.796Z,84303.47
2023-01-28T19:24:13.953Z,84308.22
2023-01-28T19:27:16.418Z,84308.22
2023-01-28T19:30:19.597Z,84316.09
2023-01-28T19:33:22.010Z,84308.22
2023-01-28T19:36:27.284Z,84309.78
2023-01-28T19:39:31.320Z,84309.78
2023-01-28T19:42:34.028Z,84314.56
2023-01-28T19:45:36.435Z,84312.94
2023-01-28T19:48:39.395Z,84313.72
2023-01-28T19:51:41.684Z,84309.81
2023-01-28T19:54:44.537Z,84312.16
2023-01-28T19:57:47.002Z,84308.22
2023-01-28T20:00:49.610Z,84309.81
2023-01-28T20:03:55.333Z,84300.34
2023-01-28T20:06:57.696Z,84298.78
2023-01-28T20:10:00.350Z,84293.25
2023-01-28T20:13:02.673Z,84306.69
2023-01-28T20:16:07.798Z,84307.44
2023-01-28T20:19:15.887Z,84309.84
2023-01-28T20:22:18.475Z,84313.00
2023-01-28T20:25:20.786Z,84319.25
2023-01-28T20:28:23.757Z,84319.28
2023-01-28T20:31:26.278Z,84316.13
2023-01-28T20:34:29.183Z,84316.13
2023-01-28T20:37:31.546Z,84311.38
2023-01-28T20:40:34.159Z,84312.97
2023-01-28T20:43:37.980Z,84308.25
2023-01-28T20:46:40.707Z,84298.75
2023-01-28T20:49:43.068Z,84298.00
2023-01-28T20:52:45.896Z,84301.13
2023-01-28T20:55:59.032Z,84311.41
2023-01-28T20:59:04.982Z,84311.38
2023-01-28T21:02:10.259Z,84320.88
2023-01-28T21:05:13.380Z,84322.44
2023-01-28T21:08:16.499Z,84317.72
2023-01-28T21:11:20.205Z,84333.47
2023-01-28T21:14:22.718Z,84343.72
2023-01-28T21:17:25.647Z,84338.22
2023-01-28T21:20:30.065Z,84338.22
2023-01-28T21:23:32.957Z,84341.38
2023-01-28T21:26:35.349Z,84327.16
2023-01-28T21:29:38.239Z,84336.66
2023-01-28T21:32:40.692Z,84338.22
2023-01-28T21:35:43.738Z,84340.59
2023-01-28T21:38:52.980Z,84339.81
2023-01-28T21:41:55.851Z,84344.53
2023-01-28T21:44:58.320Z,84345.28
2023-01-28T21:48:01.025Z,84350.03
2023-01-28T21:51:26.496Z,84350.84
2023-01-28T21:54:29.280Z,84349.25
2023-01-28T21:57:31.654Z,84349.25
2023-01-28T22:00:34.356Z,84357.12
2023-01-28T22:03:37.030Z,84361.91
2023-01-28T22:06:39.518Z,84360.28
2023-01-28T22:09:43.003Z,84363.47
2023-01-28T22:12:45.359Z,84366.59
2023-01-28T22:15:48.256Z,84368.19
2023-01-28T22:18:50.667Z,84361.88
2023-01-28T22:21:53.427Z,84360.31
2023-01-28T22:24:55.799Z,84361.06
2023-01-28T22:27:58.425Z,84365.03
2023-01-28T22:31:09.336Z,84363.47
2023-01-28T22:34:12.435Z,84359.50
2023-01-28T22:37:15.202Z,84368.19
2023-01-28T22:40:19.413Z,84363.44
2023-01-28T22:43:21.702Z,84362.66
2023-01-28T22:46:25.508Z,84366.59
2023-01-28T22:49:28.017Z,84358.69
2023-01-28T22:52:30.739Z,84359.50
2023-01-28T22:55:33.379Z,84369.75
2023-01-28T22:58:36.005Z,84363.47
2023-01-28T23:01:38.400Z,84365.06
2023-01-28T23:04:41.072Z,84365.84
2023-01-28T23:07:43.390Z,84372.94
2023-01-28T23:10:50.319Z,84376.84
2023-01-28T23:14:13.386Z,84376.06
2023-01-28T23:17:34.876Z,84383.97
2023-01-28T23:20:58.305Z,84380.00
2023-01-28T23:24:19.697Z,84389.47
2023-01-28T23:27:22.076Z,84390.25
2023-01-28T23:30:25.405Z,84393.38
2023-01-28T23:33:27.812Z,84402.84
2023-01-28T23:36:31.535Z,84398.16
2023-01-28T23:39:34.344Z,84398.13
2023-01-28T23:42:37.265Z,84398.94
2023-01-28T23:45:39.798Z,84406.03
2023-01-28T23:48:42.452Z,84407.59
2023-01-28T23:51:45.642Z,84398.94
2023-01-28T23:54:48.257Z,84405.22
2023-01-28T23:57:50.627Z,84409.97
